createdAt,value
2019-02-25T00:00:28.603Z,8.30
2019-02-25T00:01:28.816Z,7.40
2019-02-25T00:02:28.947Z,8.80
2019-02-25T00:03:29.112Z,8.20
2019-02-25T00:04:29.284Z,9.40
2019-02-25T00:05:29.455Z,9.50
2019-02-25T00:06:29.618Z,8.40
2019-02-25T00:07:29.777Z,10.90
2019-02-25T00:08:29.882Z,9.40
2019-02-25T00:09:30.091Z,11.50
2019-02-25T00:10:30.292Z,12.20
2019-02-25T00:11:30.460Z,10.60
2019-02-25T00:12:30.605Z,9.30
2019-02-25T00:13:30.693Z,9.60
2019-02-25T00:14:30.866Z,9.40
2019-02-25T00:15:31.016Z,9.20
2019-02-25T00:16:31.153Z,9.40
2019-02-25T00:17:31.335Z,11.90
2019-02-25T00:18:31.463Z,9.00
2019-02-25T00:19:31.615Z,10.10
2019-02-25T00:20:31.765Z,8.50
2019-02-25T00:21:31.911Z,8.50
2019-02-25T00:22:32.071Z,8.50
2019-02-25T00:23:32.222Z,9.80
2019-02-25T00:24:32.382Z,7.80
2019-02-25T00:25:32.530Z,7.90
2019-02-25T00:26:32.713Z,7.60
2019-02-25T00:27:32.867Z,8.30
2019-02-25T00:28:33.020Z,7.90
2019-02-25T00:29:33.173Z,9.30
2019-02-25T00:30:33.344Z,7.00
2019-02-25T00:31:33.508Z,9.30
2019-02-25T00:32:33.684Z,8.10
2019-02-25T00:33:33.847Z,8.10
2019-02-25T00:34:33.998Z,8.90
2019-02-25T00:35:34.146Z,8.50
2019-02-25T00:36:34.321Z,8.70
2019-02-25T00:37:34.461Z,9.70
2019-02-25T00:38:34.660Z,8.80
2019-02-25T00:39:34.811Z,9.70
2019-02-25T00:40:34.951Z,8.80
2019-02-25T00:41:35.111Z,8.30
2019-02-25T00:42:35.312Z,8.90
2019-02-25T00:43:35.456Z,10.20
2019-02-25T00:44:35.605Z,8.00
2019-02-25T00:45:35.765Z,10.00
2019-02-25T00:46:35.906Z,9.30
2019-02-25T00:47:36.056Z,8.30
2019-02-25T00:48:36.212Z,8.50
2019-02-25T00:49:36.355Z,8.00
2019-02-25T00:50:36.521Z,9.50
2019-02-25T00:51:36.712Z,8.90
2019-02-25T00:52:36.863Z,8.00
2019-02-25T00:53:37.022Z,8.50
2019-02-25T00:54:37.170Z,8.80
2019-02-25T00:55:37.316Z,8.00
2019-02-25T00:56:37.477Z,8.00
2019-02-25T00:57:37.609Z,8.90
2019-02-25T00:58:37.778Z,9.10
2019-02-25T00:59:37.962Z,7.60
2019-02-25T01:00:38.118Z,9.30
2019-02-25T01:01:38.265Z,9.00
2019-02-25T01:02:38.428Z,7.70
2019-02-25T01:03:38.577Z,8.10
2019-02-25T01:04:38.734Z,9.70
2019-02-25T01:05:38.901Z,8.10
2019-02-25T01:06:39.060Z,7.90
2019-02-25T01:07:39.222Z,8.50
2019-02-25T01:08:39.381Z,9.30
2019-02-25T01:09:39.554Z,9.20
2019-02-25T01:10:39.677Z,10.40
2019-02-25T01:11:39.938Z,8.30
2019-02-25T01:12:40.042Z,9.50
2019-02-25T01:13:40.182Z,8.20
2019-02-25T01:14:40.325Z,8.10
2019-02-25T01:15:40.478Z,7.00
2019-02-25T01:16:40.705Z,8.80
2019-02-25T01:17:40.780Z,8.00
2019-02-25T01:18:40.996Z,8.80
2019-02-25T01:19:41.158Z,8.50
2019-02-25T01:20:41.363Z,8.30
2019-02-25T01:21:41.655Z,8.60
2019-02-25T01:22:41.526Z,7.30
2019-02-25T01:23:41.738Z,8.40
2019-02-25T01:24:41.931Z,6.40
2019-02-25T01:25:42.097Z,7.40
2019-02-25T01:26:42.239Z,6.80
2019-02-25T01:27:42.380Z,8.60
2019-02-25T01:28:42.526Z,7.60
2019-02-25T01:29:42.671Z,8.70
2019-02-25T01:30:42.819Z,7.50
2019-02-25T01:31:42.965Z,6.70
2019-02-25T01:32:43.111Z,8.90
2019-02-25T01:33:43.264Z,7.50
2019-02-25T01:34:43.399Z,7.20
2019-02-25T01:35:43.609Z,6.00
2019-02-25T01:36:43.758Z,8.00
2019-02-25T01:37:43.910Z,8.40
2019-02-25T01:38:44.064Z,7.60
2019-02-25T01:39:44.230Z,7.10
2019-02-25T01:40:44.386Z,7.90
2019-02-25T01:41:44.520Z,6.50
2019-02-25T01:42:44.710Z,7.50
2019-02-25T01:43:44.868Z,6.20
2019-02-25T01:44:45.009Z,7.20
2019-02-25T01:45:45.187Z,6.80
2019-02-25T01:46:45.343Z,6.40
2019-02-25T01:47:45.500Z,7.20
2019-02-25T01:48:45.656Z,7.60
2019-02-25T01:49:45.812Z,7.00
2019-02-25T01:50:46.011Z,6.90
2019-02-25T01:51:46.150Z,8.70
2019-02-25T01:52:46.303Z,7.50
2019-02-25T01:53:46.462Z,7.00
2019-02-25T01:54:46.584Z,8.20
2019-02-25T01:55:46.744Z,9.00
2019-02-25T01:56:49.836Z,8.80
2019-02-25T01:57:49.883Z,6.70
2019-02-25T01:58:50.242Z,8.50
2019-02-25T01:59:50.946Z,7.10
2019-02-25T02:00:50.710Z,6.90
2019-02-25T02:01:52.031Z,6.50
2019-02-25T02:02:50.186Z,8.70
2019-02-25T02:03:51.605Z,9.60
2019-02-25T02:04:51.696Z,8.00
2019-02-25T02:05:50.801Z,9.20
2019-02-25T02:06:52.191Z,8.80
2019-02-25T02:07:51.250Z,8.00
2019-02-25T02:08:52.098Z,9.00
2019-02-25T02:09:50.974Z,8.00
2019-02-25T02:10:50.882Z,8.40
2019-02-25T02:11:50.829Z,7.30
2019-02-25T02:12:50.687Z,8.30
2019-02-25T02:13:51.023Z,6.80
2019-02-25T02:14:49.916Z,7.40
2019-02-25T02:15:50.053Z,9.10
2019-02-25T02:16:50.208Z,9.40
2019-02-25T02:17:50.441Z,8.20
2019-02-25T02:18:50.483Z,9.20
2019-02-25T02:19:50.640Z,8.30
2019-02-25T02:20:50.796Z,9.20
2019-02-25T02:21:50.934Z,9.40
2019-02-25T02:22:53.073Z,9.90
2019-02-25T02:23:55.112Z,7.60
2019-02-25T02:24:52.861Z,8.00
2019-02-25T02:25:55.776Z,7.90
2019-02-25T02:26:52.545Z,8.20
2019-02-25T02:27:51.829Z,8.20
2019-02-25T02:28:52.037Z,8.40
2019-02-25T02:29:52.184Z,10.00
2019-02-25T02:30:52.303Z,9.30
2019-02-25T02:31:52.511Z,9.40
2019-02-25T02:32:52.649Z,7.90
2019-02-25T02:33:52.781Z,8.30
2019-02-25T02:34:52.931Z,9.20
2019-02-25T02:35:53.086Z,9.10
2019-02-25T02:36:53.261Z,9.30
2019-02-25T02:37:53.413Z,9.60
2019-02-25T02:38:53.485Z,8.90
2019-02-25T02:39:53.712Z,11.40
2019-02-25T02:40:53.865Z,9.30
2019-02-25T02:41:54.020Z,8.70
2019-02-25T02:42:54.195Z,8.60
2019-02-25T02:44:13.942Z,8.40
2019-02-25T02:44:55.280Z,8.00
2019-02-25T02:45:54.613Z,8.20
2019-02-25T02:46:55.780Z,9.50
2019-02-25T02:47:55.792Z,9.70
2019-02-25T02:51:05.661Z,8.60
2019-02-25T02:51:54.192Z,7.80
2019-02-25T02:52:54.413Z,8.60
2019-02-25T02:53:55.097Z,8.70
2019-02-25T02:54:54.676Z,9.70
2019-02-25T02:55:54.886Z,9.40
2019-02-25T02:56:55.098Z,8.80
2019-02-25T02:57:55.308Z,9.00
2019-02-25T02:58:55.503Z,8.90
2019-02-25T02:59:55.703Z,9.10
2019-02-25T03:00:55.891Z,7.20
2019-02-25T03:01:56.096Z,8.10
2019-02-25T03:02:56.314Z,8.60
2019-02-25T03:03:56.396Z,9.00
2019-02-25T03:04:56.595Z,8.70
2019-02-25T03:05:56.817Z,7.60
2019-02-25T03:06:57.071Z,8.30
2019-02-25T03:07:58.097Z,8.40
2019-02-25T03:08:57.304Z,8.00
2019-02-25T03:09:58.871Z,8.20
2019-02-25T03:10:57.617Z,8.90
2019-02-25T03:11:57.811Z,8.20
2019-02-25T03:12:58.010Z,9.40
2019-02-25T03:13:58.207Z,8.10
2019-02-25T03:14:58.410Z,9.00
2019-02-25T03:15:58.602Z,7.90
2019-02-25T03:16:58.802Z,7.80
2019-02-25T03:17:59.008Z,8.00
2019-02-25T03:18:59.210Z,8.70
2019-02-25T03:19:59.449Z,6.70
2019-02-25T03:20:59.538Z,8.30
2019-02-25T03:21:59.755Z,8.70
2019-02-25T03:22:59.998Z,8.80
2019-02-25T03:24:00.215Z,8.80
2019-02-25T03:25:00.300Z,7.80
2019-02-25T03:26:00.517Z,8.10
2019-02-25T03:27:00.611Z,7.90
2019-02-25T03:28:00.817Z,7.30
2019-02-25T03:29:01.027Z,9.10
2019-02-25T03:30:01.251Z,8.30
2019-02-25T03:31:02.110Z,9.10
2019-02-25T03:32:01.453Z,8.00
2019-02-25T03:33:01.535Z,8.10
2019-02-25T03:34:01.769Z,8.30
2019-02-25T03:35:01.858Z,9.20
2019-02-25T03:36:02.103Z,8.40
2019-02-25T03:37:02.190Z,8.10
2019-02-25T03:38:02.469Z,9.00
2019-02-25T03:39:02.544Z,8.10
2019-02-25T03:40:02.773Z,8.70
2019-02-25T03:41:03.613Z,7.60
2019-02-25T03:42:02.966Z,8.50
2019-02-25T03:43:03.626Z,6.30
2019-02-25T03:44:03.233Z,8.40
2019-02-25T03:45:03.307Z,8.30
2019-02-25T03:46:03.501Z,8.80
2019-02-25T03:47:03.743Z,7.90
2019-02-25T03:48:03.814Z,9.40
2019-02-25T03:49:04.014Z,7.60
2019-02-25T03:50:04.231Z,8.60
2019-02-25T03:51:04.442Z,7.90
2019-02-25T03:52:04.661Z,7.30
2019-02-25T03:53:04.893Z,7.30
2019-02-25T03:54:04.980Z,8.90
2019-02-25T03:55:06.133Z,8.70
2019-02-25T03:56:05.340Z,8.90
2019-02-25T03:57:05.548Z,7.80
2019-02-25T03:58:05.752Z,7.50
2019-02-25T03:59:05.958Z,8.40
2019-02-25T04:00:06.207Z,7.20
2019-02-25T04:01:06.290Z,8.60
2019-02-25T04:02:06.513Z,8.90
2019-02-25T04:03:06.599Z,6.80
2019-02-25T04:04:07.629Z,8.60
2019-02-25T04:05:06.969Z,7.50
2019-02-25T04:06:07.170Z,8.20
2019-02-25T04:07:07.384Z,7.40
2019-02-25T04:08:08.108Z,9.40
2019-02-25T04:09:07.686Z,7.40
2019-02-25T04:10:07.889Z,7.70
2019-02-25T04:11:08.604Z,8.80
2019-02-25T04:12:09.105Z,7.80
2019-02-25T04:13:08.314Z,7.50
2019-02-25T04:14:08.512Z,8.20
2019-02-25T04:15:08.643Z,7.20
2019-02-25T04:16:08.954Z,7.70
2019-02-25T04:17:09.047Z,9.00
2019-02-25T04:18:09.126Z,10.20
2019-02-25T04:19:09.331Z,6.90
2019-02-25T04:20:09.528Z,8.50
2019-02-25T04:21:09.724Z,7.80
2019-02-25T04:22:09.937Z,9.50
2019-02-25T04:23:10.180Z,7.00
2019-02-25T04:24:10.250Z,7.80
2019-02-25T04:25:10.455Z,8.70
2019-02-25T04:26:10.657Z,8.00
2019-02-25T04:27:10.855Z,7.20
2019-02-25T04:28:11.071Z,6.80
2019-02-25T04:29:11.267Z,8.50
2019-02-25T04:30:11.551Z,7.90
2019-02-25T04:31:11.628Z,9.90
2019-02-25T04:32:11.812Z,9.50
2019-02-25T04:33:12.595Z,7.20
2019-02-25T04:34:12.188Z,7.20
2019-02-25T04:35:12.375Z,7.10
2019-02-25T04:36:12.588Z,7.60
2019-02-25T04:37:12.833Z,8.40
2019-02-25T04:38:12.914Z,7.10
2019-02-25T04:39:13.133Z,8.30
2019-02-25T04:40:13.212Z,8.90
2019-02-25T04:41:13.322Z,7.80
2019-02-25T04:42:14.102Z,9.10
2019-02-25T04:43:13.527Z,7.90
2019-02-25T04:44:13.704Z,8.10
2019-02-25T04:45:13.925Z,7.20
2019-02-25T04:46:14.077Z,7.80
2019-02-25T04:47:14.163Z,7.60
2019-02-25T04:48:14.375Z,9.50
2019-02-25T04:49:14.592Z,6.70
2019-02-25T04:50:14.802Z,7.30
2019-02-25T04:51:15.020Z,7.30
2019-02-25T04:52:15.098Z,7.50
2019-02-25T04:53:15.297Z,7.90
2019-02-25T04:54:15.508Z,8.20
2019-02-25T04:55:15.706Z,8.80
2019-02-25T04:56:15.921Z,7.30
2019-02-25T04:57:16.115Z,7.40
2019-02-25T04:58:16.342Z,8.50
2019-02-25T04:59:16.427Z,7.90
2019-02-25T05:00:16.664Z,7.70
2019-02-25T05:01:16.823Z,7.20
2019-02-25T05:02:16.932Z,7.90
2019-02-25T05:03:40.652Z,6.60
2019-02-25T05:04:17.201Z,7.30
2019-02-25T05:05:17.434Z,7.50
2019-02-25T05:06:17.509Z,7.10
2019-02-25T05:07:17.761Z,7.40
2019-02-25T05:08:28.296Z,7.70
2019-02-25T05:11:15.056Z,9.30
2019-02-25T05:12:15.213Z,7.00
2019-02-25T05:13:15.368Z,6.80
2019-02-25T05:14:15.598Z,8.30
2019-02-25T05:15:15.783Z,9.10
2019-02-25T05:16:16.029Z,6.20
2019-02-25T05:17:16.176Z,7.60
2019-02-25T05:18:16.226Z,7.40
2019-02-25T05:19:16.378Z,7.20
2019-02-25T05:20:16.561Z,7.60
2019-02-25T05:21:16.724Z,8.30
2019-02-25T05:22:16.953Z,7.60
2019-02-25T05:23:17.031Z,7.20
2019-02-25T05:24:17.266Z,8.30
2019-02-25T05:25:17.323Z,7.00
2019-02-25T05:26:17.512Z,7.10
2019-02-25T05:27:17.612Z,10.30
2019-02-25T05:28:17.879Z,6.90
2019-02-25T05:29:18.038Z,7.10
2019-02-25T05:30:18.261Z,7.30
2019-02-25T05:31:18.428Z,6.40
2019-02-25T05:32:18.613Z,8.10
2019-02-25T05:33:18.791Z,7.20
2019-02-25T05:34:19.021Z,8.20
2019-02-25T05:35:19.082Z,7.60
2019-02-25T05:36:19.228Z,8.30
2019-02-25T05:37:19.450Z,8.20
2019-02-25T05:38:19.683Z,7.60
2019-02-25T05:39:19.785Z,8.00
2019-02-25T05:40:20.529Z,7.10
2019-02-25T05:41:19.964Z,7.40
2019-02-25T05:42:20.176Z,7.50
2019-02-25T05:43:20.510Z,7.70
2019-02-25T05:44:20.701Z,6.50
2019-02-25T05:45:20.918Z,7.70
2019-02-25T05:46:21.542Z,6.80
2019-02-25T05:47:23.005Z,6.50
2019-02-25T05:48:21.244Z,7.20
2019-02-25T05:49:21.889Z,7.70
2019-02-25T05:50:21.691Z,7.80
2019-02-25T05:51:21.634Z,7.90
2019-02-25T05:52:21.737Z,6.70
2019-02-25T05:53:23.533Z,7.50
2019-02-25T05:54:22.056Z,7.30
2019-02-25T05:55:22.282Z,5.50
2019-02-25T05:56:24.146Z,7.80
2019-02-25T05:57:23.640Z,7.00
2019-02-25T05:58:22.643Z,6.30
2019-02-25T05:59:22.915Z,7.20
2019-02-25T06:00:23.530Z,8.10
2019-02-25T06:01:23.052Z,7.60
2019-02-25T06:02:23.327Z,6.60
2019-02-25T06:03:23.420Z,7.30
2019-02-25T06:04:23.709Z,7.60
2019-02-25T06:05:23.774Z,7.70
2019-02-25T06:06:24.098Z,7.40
2019-02-25T06:07:24.174Z,6.90
2019-02-25T06:08:24.366Z,8.00
2019-02-25T06:09:24.692Z,6.70
2019-02-25T06:10:25.651Z,8.20
2019-02-25T06:11:25.643Z,9.80
2019-02-25T06:12:25.034Z,10.60
2019-02-25T06:13:27.165Z,9.20
2019-02-25T06:14:26.748Z,8.30
2019-02-25T06:15:25.855Z,9.40
2019-02-25T06:16:25.690Z,8.70
2019-02-25T06:17:26.473Z,8.80
2019-02-25T06:18:27.279Z,8.70
2019-02-25T06:19:27.860Z,7.90
2019-02-25T06:20:27.625Z,10.30
2019-02-25T06:21:28.365Z,8.20
2019-02-25T06:22:26.566Z,7.90
2019-02-25T06:23:26.682Z,8.00
2019-02-25T06:24:26.760Z,8.80
2019-02-25T06:25:26.980Z,8.70
2019-02-25T06:26:27.266Z,7.80
2019-02-25T06:27:30.722Z,11.50
2019-02-25T06:28:27.526Z,12.00
2019-02-25T06:29:27.734Z,12.20
2019-02-25T06:30:28.582Z,10.20
2019-02-25T06:31:28.556Z,10.10
2019-02-25T06:32:28.130Z,9.00
2019-02-25T06:33:28.326Z,9.70
2019-02-25T06:34:28.534Z,8.40
2019-02-25T06:35:28.749Z,9.70
2019-02-25T06:36:28.961Z,8.20
2019-02-25T06:37:31.236Z,6.50
2019-02-25T06:38:31.721Z,6.50
2019-02-25T06:39:31.296Z,8.10
2019-02-25T06:40:31.844Z,8.20
2019-02-25T06:41:32.420Z,8.80
2019-02-25T06:42:32.780Z,8.40
2019-02-25T06:43:30.250Z,8.70
2019-02-25T06:44:32.321Z,7.90
2019-02-25T06:45:32.201Z,10.10
2019-02-25T06:46:32.919Z,8.90
2019-02-25T06:47:31.669Z,6.10
2019-02-25T06:48:33.366Z,8.70
2019-02-25T06:49:34.609Z,8.40
2019-02-25T06:50:33.304Z,8.00
2019-02-25T06:51:32.780Z,8.70
2019-02-25T06:52:34.835Z,7.70
2019-02-25T06:53:34.686Z,7.80
2019-02-25T06:54:33.345Z,9.60
2019-02-25T06:55:33.915Z,9.30
2019-02-25T06:56:36.722Z,8.80
2019-02-25T06:57:37.470Z,7.90
2019-02-25T06:58:35.717Z,7.20
2019-02-25T06:59:36.419Z,7.90
2019-02-25T07:00:37.085Z,7.40
2019-02-25T07:01:33.863Z,8.10
2019-02-25T07:02:37.363Z,8.10
2019-02-25T07:03:33.778Z,9.00
2019-02-25T07:04:36.084Z,8.10
2019-02-25T07:05:34.666Z,9.30
2019-02-25T07:06:34.007Z,10.00
2019-02-25T07:07:34.150Z,9.60
2019-02-25T07:08:34.220Z,12.20
2019-02-25T07:09:34.421Z,9.60
2019-02-25T07:10:34.721Z,9.10
2019-02-25T07:11:34.878Z,9.40
2019-02-25T07:12:35.034Z,8.00
2019-02-25T07:13:35.080Z,7.70
2019-02-25T07:14:35.338Z,8.80
2019-02-25T07:15:35.504Z,9.30
2019-02-25T07:16:35.593Z,8.50
2019-02-25T07:17:35.804Z,8.50
2019-02-25T07:18:36.654Z,9.20
2019-02-25T07:19:36.130Z,8.60
2019-02-25T07:20:36.257Z,8.60
2019-02-25T07:21:36.574Z,7.20
2019-02-25T07:22:36.656Z,7.20
2019-02-25T07:23:37.711Z,9.40
2019-02-25T07:24:36.988Z,7.40
2019-02-25T07:25:37.212Z,7.70
2019-02-25T07:26:37.378Z,7.50
2019-02-25T07:27:37.493Z,8.30
2019-02-25T07:28:37.691Z,7.80
2019-02-25T07:29:37.811Z,7.70
2019-02-25T07:30:37.963Z,8.80
2019-02-25T07:31:38.595Z,7.20
2019-02-25T07:32:38.211Z,7.20
2019-02-25T07:33:38.304Z,7.30
2019-02-25T07:34:40.145Z,6.60
2019-02-25T07:35:38.802Z,8.50
2019-02-25T07:36:38.969Z,7.00
2019-02-25T07:37:38.995Z,6.10
2019-02-25T07:38:40.231Z,7.50
2019-02-25T07:39:39.418Z,6.90
2019-02-25T07:40:39.543Z,8.30
2019-02-25T07:41:40.401Z,6.10
2019-02-25T07:42:39.805Z,7.30
2019-02-25T07:43:40.585Z,6.00
2019-02-25T07:44:40.083Z,7.20
2019-02-25T07:45:40.269Z,6.00
2019-02-25T07:46:41.109Z,6.40
2019-02-25T07:47:40.642Z,6.70
2019-02-25T07:48:42.293Z,8.20
2019-02-25T07:49:41.634Z,7.50
2019-02-25T07:50:47.256Z,7.00
2019-02-25T07:51:41.496Z,7.40
2019-02-25T07:52:41.504Z,7.70
2019-02-25T07:53:41.691Z,6.80
2019-02-25T07:54:43.501Z,7.40
2019-02-25T07:55:41.987Z,7.10
2019-02-25T07:56:42.246Z,7.10
2019-02-25T07:57:42.241Z,6.50
2019-02-25T07:58:42.337Z,6.20
2019-02-25T07:59:42.668Z,4.90
2019-02-25T08:00:42.717Z,7.30
2019-02-25T08:01:42.803Z,5.60
2019-02-25T08:02:43.169Z,7.50
2019-02-25T08:03:43.217Z,7.60
2019-02-25T08:04:43.478Z,6.30
2019-02-25T08:05:43.638Z,5.90
2019-02-25T08:06:45.609Z,6.10
2019-02-25T08:07:43.990Z,6.30
2019-02-25T08:08:44.131Z,7.40
2019-02-25T08:09:44.227Z,5.50
2019-02-25T08:10:44.443Z,6.40
2019-02-25T08:11:44.701Z,6.20
2019-02-25T08:12:44.692Z,6.80
2019-02-25T08:13:44.862Z,6.60
2019-02-25T08:14:45.046Z,5.30
2019-02-25T08:15:45.168Z,6.10
2019-02-25T08:16:45.452Z,6.20
2019-02-25T08:17:45.602Z,5.00
2019-02-25T08:18:45.870Z,6.20
2019-02-25T08:19:45.860Z,5.70
2019-02-25T08:20:46.095Z,5.20
2019-02-25T08:21:46.229Z,6.10
2019-02-25T08:22:46.302Z,5.70
2019-02-25T08:23:46.589Z,5.80
2019-02-25T08:24:46.793Z,7.30
2019-02-25T08:25:46.939Z,7.40
2019-02-25T08:26:47.120Z,7.00
2019-02-25T08:27:47.350Z,5.80
2019-02-25T08:28:47.884Z,5.40
2019-02-25T08:29:47.792Z,6.70
2019-02-25T08:30:48.021Z,6.10
2019-02-25T08:31:48.205Z,6.10
2019-02-25T08:32:48.471Z,7.20
2019-02-25T08:33:48.468Z,5.90
2019-02-25T08:34:48.658Z,6.30
2019-02-25T08:35:48.899Z,5.90
2019-02-25T08:36:49.022Z,6.00
2019-02-25T08:37:49.180Z,7.40
2019-02-25T08:38:49.435Z,7.50
2019-02-25T08:39:50.200Z,5.50
2019-02-25T08:40:53.360Z,7.00
2019-02-25T08:41:54.753Z,7.80
2019-02-25T08:42:52.440Z,6.00
2019-02-25T08:43:50.305Z,6.90
2019-02-25T08:44:50.465Z,6.00
2019-02-25T08:45:50.661Z,6.30
2019-02-25T08:46:50.889Z,6.50
2019-02-25T08:47:51.154Z,5.50
2019-02-25T08:48:51.222Z,6.40
2019-02-25T08:49:51.346Z,6.20
2019-02-25T08:50:51.443Z,7.10
2019-02-25T08:51:54.090Z,5.60
2019-02-25T08:52:51.859Z,6.10
2019-02-25T08:53:51.933Z,7.40
2019-02-25T08:54:52.139Z,6.70
2019-02-25T08:55:52.329Z,5.80
2019-02-25T08:56:52.517Z,7.70
2019-02-25T08:57:52.709Z,6.40
2019-02-25T08:58:52.875Z,6.40
2019-02-25T08:59:53.022Z,6.70
2019-02-25T09:00:53.170Z,6.00
2019-02-25T09:01:53.395Z,6.20
2019-02-25T09:02:53.400Z,5.30
2019-02-25T09:03:53.703Z,5.60
2019-02-25T09:04:53.922Z,5.80
2019-02-25T09:05:54.014Z,7.30
2019-02-25T09:06:54.272Z,5.60
2019-02-25T09:07:54.443Z,5.90
2019-02-25T09:08:54.626Z,6.40
2019-02-25T09:09:54.882Z,6.10
2019-02-25T09:10:54.990Z,6.10
2019-02-25T09:11:55.217Z,6.80
2019-02-25T09:12:55.443Z,6.00
2019-02-25T09:13:56.955Z,7.50
2019-02-25T09:14:55.882Z,8.30
2019-02-25T09:15:56.044Z,8.20
2019-02-25T09:16:56.165Z,7.10
2019-02-25T09:17:56.366Z,6.50
2019-02-25T09:18:57.937Z,6.80
2019-02-25T09:19:56.635Z,7.10
2019-02-25T09:20:57.397Z,8.20
2019-02-25T09:21:57.023Z,6.70
2019-02-25T09:22:57.059Z,7.80
2019-02-25T09:23:57.819Z,8.30
2019-02-25T09:24:58.569Z,7.70
2019-02-25T09:25:57.721Z,7.20
2019-02-25T09:26:57.812Z,6.40
2019-02-25T09:27:58.201Z,8.30
2019-02-25T09:28:58.331Z,6.60
2019-02-25T09:29:58.284Z,5.90
2019-02-25T09:30:58.458Z,6.00
2019-02-25T09:31:58.605Z,8.80
2019-02-25T09:32:58.704Z,7.50
2019-02-25T09:33:58.987Z,8.00
2019-02-25T09:34:59.367Z,6.50
2019-02-25T09:35:59.394Z,7.00
2019-02-25T09:36:59.563Z,6.80
2019-02-25T09:37:59.729Z,7.10
2019-02-25T09:38:59.911Z,7.30
2019-02-25T09:40:00.325Z,7.00
2019-02-25T09:41:00.196Z,6.20
2019-02-25T09:42:02.077Z,7.50
2019-02-25T09:43:00.431Z,10.50
2019-02-25T09:44:00.582Z,8.60
2019-02-25T09:45:00.716Z,7.00
2019-02-25T09:46:00.979Z,6.40
2019-02-25T09:47:01.054Z,8.50
2019-02-25T09:48:01.105Z,7.10
2019-02-25T09:49:01.289Z,6.60
2019-02-25T09:50:01.482Z,7.20
2019-02-25T09:51:01.748Z,9.10
2019-02-25T09:52:01.929Z,7.50
2019-02-25T09:53:02.004Z,7.10
2019-02-25T09:54:02.198Z,7.40
2019-02-25T09:55:02.333Z,9.80
2019-02-25T09:56:02.474Z,7.30
2019-02-25T09:57:02.637Z,7.40
2019-02-25T09:58:02.831Z,8.80
2019-02-25T09:59:03.622Z,7.20
2019-02-25T10:00:03.150Z,7.90
2019-02-25T10:01:03.310Z,7.10
2019-02-25T10:02:03.496Z,7.70
2019-02-25T10:03:03.661Z,7.00
2019-02-25T10:04:04.452Z,6.60
2019-02-25T10:05:04.039Z,6.50
2019-02-25T10:06:04.228Z,6.60
2019-02-25T10:07:05.523Z,7.80
2019-02-25T10:08:04.539Z,6.80
2019-02-25T10:09:04.681Z,6.90
2019-02-25T10:10:04.865Z,9.40
2019-02-25T10:11:05.050Z,6.70
2019-02-25T10:12:05.201Z,6.60
2019-02-25T10:13:05.371Z,8.10
2019-02-25T10:14:05.522Z,6.60
2019-02-25T10:15:05.682Z,7.30
2019-02-25T10:16:05.833Z,6.80
2019-02-25T10:17:07.205Z,7.00
2019-02-25T10:18:06.118Z,7.30
2019-02-25T10:19:06.274Z,6.50
2019-02-25T10:20:06.377Z,6.60
2019-02-25T10:21:06.675Z,6.80
2019-02-25T10:22:06.810Z,7.40
2019-02-25T10:23:07.055Z,6.70
2019-02-25T10:24:07.069Z,7.00
2019-02-25T10:25:07.149Z,7.70
2019-02-25T10:26:07.307Z,6.80
2019-02-25T10:27:07.539Z,8.80
2019-02-25T10:28:07.682Z,6.00
2019-02-25T10:29:07.839Z,7.20
2019-02-25T10:30:08.055Z,7.20
2019-02-25T10:31:08.047Z,6.40
2019-02-25T10:32:08.251Z,6.80
2019-02-25T10:33:08.288Z,6.00
2019-02-25T10:34:09.014Z,5.70
2019-02-25T10:35:09.390Z,7.30
2019-02-25T10:36:10.710Z,6.50
2019-02-25T10:37:11.018Z,6.60
2019-02-25T10:38:09.156Z,6.30
2019-02-25T10:39:11.271Z,5.70
2019-02-25T10:40:09.526Z,5.90
2019-02-25T10:41:10.545Z,6.00
2019-02-25T10:42:09.688Z,5.20
2019-02-25T10:43:09.816Z,5.70
2019-02-25T10:44:09.897Z,5.90
2019-02-25T10:45:11.052Z,5.50
2019-02-25T10:46:12.963Z,5.60
2019-02-25T10:47:11.010Z,5.20
2019-02-25T10:48:10.569Z,5.60
2019-02-25T10:49:11.619Z,5.80
2019-02-25T10:50:10.888Z,5.10
2019-02-25T10:51:11.557Z,5.90
2019-02-25T10:52:12.785Z,5.40
2019-02-25T10:53:13.045Z,5.50
2019-02-25T10:54:11.453Z,4.90
2019-02-25T10:55:11.575Z,4.80
2019-02-25T10:56:11.679Z,4.80
2019-02-25T10:57:11.924Z,5.60
2019-02-25T10:58:12.031Z,4.80
2019-02-25T10:59:12.243Z,4.60
2019-02-25T11:00:13.820Z,5.10
2019-02-25T11:01:16.910Z,4.70
2019-02-25T11:02:13.692Z,5.80
2019-02-25T11:03:15.081Z,5.30
2019-02-25T11:04:15.278Z,4.40
2019-02-25T11:05:13.519Z,4.30
2019-02-25T11:06:13.731Z,5.60
2019-02-25T11:07:13.744Z,4.90
2019-02-25T11:08:13.966Z,5.00
2019-02-25T11:09:15.864Z,4.70
2019-02-25T11:10:16.064Z,6.00
2019-02-25T11:11:16.209Z,3.90
2019-02-25T11:12:14.629Z,3.60
2019-02-25T11:13:14.759Z,4.20
2019-02-25T11:14:14.854Z,3.60
2019-02-25T11:15:15.987Z,4.50
2019-02-25T11:16:16.441Z,4.80
2019-02-25T11:17:16.056Z,3.70
2019-02-25T11:18:17.456Z,4.50
2019-02-25T11:19:15.684Z,4.40
2019-02-25T11:20:15.937Z,4.20
2019-02-25T11:21:16.098Z,5.00
2019-02-25T11:22:16.469Z,4.30
2019-02-25T11:23:17.608Z,3.80
2019-02-25T11:24:18.259Z,4.70
2019-02-25T11:25:16.720Z,5.80
2019-02-25T11:26:16.819Z,4.20
2019-02-25T11:27:17.046Z,4.00
2019-02-25T11:28:25.517Z,4.40
2019-02-25T11:29:17.305Z,3.70
2019-02-25T11:30:19.365Z,4.40
2019-02-25T11:31:20.744Z,4.70
2019-02-25T11:32:19.853Z,4.40
2019-02-25T11:33:18.012Z,5.10
2019-02-25T11:34:18.164Z,3.80
2019-02-25T11:35:18.383Z,4.20
2019-02-25T11:36:20.033Z,4.50
2019-02-25T11:37:19.702Z,4.60
2019-02-25T11:38:18.838Z,4.40
2019-02-25T11:39:19.025Z,4.30
2019-02-25T11:40:19.208Z,4.60
2019-02-25T11:41:19.316Z,5.20
2019-02-25T11:42:20.676Z,4.30
2019-02-25T11:43:21.539Z,4.10
2019-02-25T11:44:21.168Z,4.80
2019-02-25T11:45:20.172Z,5.10
2019-02-25T11:46:20.622Z,5.20
2019-02-25T11:47:20.636Z,4.90
2019-02-25T11:48:22.549Z,5.60
2019-02-25T11:49:20.576Z,4.20
2019-02-25T11:50:20.704Z,4.70
2019-02-25T11:51:20.839Z,4.20
2019-02-25T11:52:21.007Z,4.40
2019-02-25T11:53:21.215Z,4.10
2019-02-25T11:54:21.419Z,3.70
2019-02-25T11:55:22.002Z,4.40
2019-02-25T11:56:21.833Z,4.00
2019-02-25T11:57:21.990Z,4.20
2019-02-25T11:58:22.094Z,4.50
2019-02-25T11:59:22.232Z,4.50
2019-02-25T12:00:22.500Z,4.00
2019-02-25T12:01:22.476Z,4.60
2019-02-25T12:02:25.566Z,4.30
2019-02-25T12:03:23.004Z,5.30
2019-02-25T12:04:22.970Z,3.90
2019-02-25T12:05:23.167Z,5.00
2019-02-25T12:06:23.414Z,3.50
2019-02-25T12:07:23.485Z,3.80
2019-02-25T12:08:23.688Z,4.20
2019-02-25T12:09:23.817Z,4.00
2019-02-25T12:10:23.941Z,3.80
2019-02-25T12:11:24.078Z,3.40
2019-02-25T12:12:24.296Z,3.50
2019-02-25T12:13:24.460Z,3.20
2019-02-25T12:14:24.686Z,2.90
2019-02-25T12:15:24.864Z,2.50
2019-02-25T12:16:25.118Z,2.60
2019-02-25T12:17:25.483Z,2.40
2019-02-25T12:18:25.507Z,2.30
2019-02-25T12:19:25.796Z,2.90
2019-02-25T12:20:25.983Z,3.40
2019-02-25T12:21:26.165Z,3.10
2019-02-25T12:22:26.302Z,3.10
2019-02-25T12:23:26.405Z,2.60
2019-02-25T12:24:29.222Z,1.60
2019-02-25T12:25:26.720Z,2.60
2019-02-25T12:26:26.926Z,2.40
2019-02-25T12:27:27.175Z,2.00
2019-02-25T12:28:27.472Z,2.20
2019-02-25T12:29:27.597Z,2.40
2019-02-25T12:30:27.730Z,2.70
2019-02-25T12:31:27.908Z,3.40
2019-02-25T12:32:28.095Z,2.80
2019-02-25T12:33:28.318Z,3.30
2019-02-25T12:34:28.452Z,2.90
2019-02-25T12:35:28.970Z,3.60
2019-02-25T12:36:28.864Z,2.60
2019-02-25T12:37:28.946Z,3.30
2019-02-25T12:38:29.110Z,2.40
2019-02-25T12:39:29.240Z,2.10
2019-02-25T12:40:29.387Z,2.70
2019-02-25T12:41:29.775Z,2.50
2019-02-25T12:42:29.974Z,2.40
2019-02-25T12:43:30.155Z,3.30
2019-02-25T12:44:30.286Z,3.20
2019-02-25T12:45:30.436Z,2.70
2019-02-25T12:46:30.760Z,3.10
2019-02-25T12:47:30.922Z,2.50
2019-02-25T12:48:31.057Z,2.00
2019-02-25T12:49:31.219Z,2.10
2019-02-25T12:50:31.354Z,1.90
2019-02-25T12:51:31.290Z,2.00
2019-02-25T12:52:32.706Z,2.60
2019-02-25T12:53:31.524Z,1.90
2019-02-25T12:54:31.766Z,2.10
2019-02-25T12:55:32.006Z,2.00
2019-02-25T12:56:32.134Z,1.60
2019-02-25T12:57:33.710Z,2.20
2019-02-25T12:58:32.945Z,1.50
2019-02-25T12:59:32.671Z,1.60
2019-02-25T13:00:32.811Z,2.00
2019-02-25T13:01:32.871Z,2.10
2019-02-25T13:02:33.057Z,1.30
2019-02-25T13:03:33.230Z,1.70
2019-02-25T13:04:33.452Z,1.50
2019-02-25T13:05:33.568Z,1.50
2019-02-25T13:06:33.883Z,2.60
2019-02-25T13:07:34.008Z,1.20
2019-02-25T13:08:34.188Z,1.70
2019-02-25T13:09:34.336Z,1.50
2019-02-25T13:10:34.476Z,1.50
2019-02-25T13:11:34.692Z,0.90
2019-02-25T13:12:34.832Z,1.30
2019-02-25T13:13:35.009Z,1.10
2019-02-25T13:14:35.139Z,1.00
2019-02-25T13:15:35.253Z,1.50
2019-02-25T13:16:35.360Z,0.70
2019-02-25T13:17:35.463Z,1.20
2019-02-25T13:18:35.742Z,0.90
2019-02-25T13:19:35.847Z,1.00
2019-02-25T13:20:36.056Z,1.00
2019-02-25T13:21:36.214Z,1.30
2019-02-25T13:22:36.310Z,1.50
2019-02-25T13:23:36.555Z,1.30